Map

Track Data

SID SEASON NUMBER BASIN SUBBASIN NAME ISO_TIME NATURE LAT LON WMO_WIND WMO_PRES WMO_AGENCY TRACK_TYPE DIST2LAND LANDFALL IFLAG USA_AGENCY USA_ATCF_ID USA_LAT USA_LON USA_RECORD USA_STATUS USA_WIND USA_PRES USA_SSHS USA_R34_NE USA_R34_SE USA_R34_SW USA_R34_NW USA_R50_NE USA_R50_SE USA_R50_SW USA_R50_NW USA_R64_NE USA_R64_SE USA_R64_SW USA_R64_NW USA_POCI USA_ROCI USA_RMW USA_EYE TOKYO_LAT TOKYO_LON TOKYO_GRADE TOKYO_WIND TOKYO_PRES TOKYO_R50_DIR TOKYO_R50_LONG TOKYO_R50_SHORT TOKYO_R30_DIR TOKYO_R30_LONG TOKYO_R30_SHORT TOKYO_LAND CMA_LAT CMA_LON CMA_CAT CMA_WIND CMA_PRES HKO_LAT HKO_LON HKO_CAT HKO_WIND HKO_PRES NEWDELHI_LAT NEWDELHI_LON NEWDELHI_GRADE NEWDELHI_WIND NEWDELHI_PRES NEWDELHI_CI NEWDELHI_DP NEWDELHI_POCI REUNION_LAT REUNION_LON REUNION_TYPE REUNION_WIND REUNION_PRES REUNION_TNUM REUNION_CI REUNION_RMW REUNION_R34_NE REUNION_R34_SE REUNION_R34_SW REUNION_R34_NW REUNION_R50_NE REUNION_R50_SE REUNION_R50_SW REUNION_R50_NW REUNION_R64_NE REUNION_R64_SE REUNION_R64_SW REUNION_R64_NW BOM_LAT BOM_LON BOM_TYPE BOM_WIND BOM_PRES BOM_TNUM BOM_CI BOM_RMW BOM_R34_NE BOM_R34_SE BOM_R34_SW BOM_R34_NW BOM_R50_NE BOM_R50_SE BOM_R50_SW BOM_R50_NW BOM_R64_NE BOM_R64_SE BOM_R64_SW BOM_R64_NW BOM_ROCI BOM_POCI BOM_EYE BOM_POS_METHOD BOM_PRES_METHOD NADI_LAT NADI_LON NADI_CAT NADI_WIND NADI_PRES WELLINGTON_LAT WELLINGTON_LON WELLINGTON_WIND WELLINGTON_PRES DS824_LAT DS824_LON DS824_STAGE DS824_WIND DS824_PRES TD9636_LAT TD9636_LON TD9636_STAGE TD9636_WIND TD9636_PRES TD9635_LAT TD9635_LON TD9635_WIND TD9635_PRES TD9635_ROCI NEUMANN_LAT NEUMANN_LON NEUMANN_CLASS NEUMANN_WIND NEUMANN_PRES MLC_LAT MLC_LON MLC_CLASS MLC_WIND MLC_PRES USA_GUST BOM_GUST BOM_GUST_PER REUNION_GUST REUNION_GUST_PER USA_SEAHGT USA_SEARAD_NE USA_SEARAD_SE USA_SEARAD_SW USA_SEARAD_NW STORM_SPEED STORM_DIR
1894250N16117 1894 37 WP MM NOT_NAMED 1894-09-06 16:00:00 NR 16.1000 117.300 main 256 256 __________O___ -1 16.1000 117.300 7 2 327
1894250N16117 1894 37 WP MM NOT_NAMED 1894-09-06 18:00:00 NR 16.1467 117.271 main 256 257 __________P___ -1 16.1467 117.271 7 2 326
1894250N16117 1894 37 WP MM NOT_NAMED 1894-09-06 21:00:00 NR 16.2181 117.219 main 268 268 __________P___ -1 16.2181 117.219 7 2 320
1894250N16117 1894 37 WP MM NOT_NAMED 1894-09-07 00:00:00 NR 16.2925 117.147 main 279 279 __________P___ -1 16.2925 117.147 7 2 313
1894250N16117 1894 37 WP MM NOT_NAMED 1894-09-07 03:00:00 NR 16.3721 117.044 main 291 291 __________P___ -1 16.3721 117.044 7 3 307
1894250N16117 1894 37 WP MM NOT_NAMED 1894-09-07 04:00:00 NR 16.4000 117.000 main 291 291 __________O___ -1 16.4000 117.000 7 3 302
1894250N16117 1894 37 WP MM NOT_NAMED 1894-09-07 06:00:00 NR 16.4584 116.898 main 304 304 __________P___ -1 16.4584 116.898 7 4 299
1894250N16117 1894 37 WP MM NOT_NAMED 1894-09-07 09:00:00 NR 16.5521 116.713 main 327 327 __________P___ -1 16.5521 116.713 7 4 297
1894250N16117 1894 37 WP MM NOT_NAMED 1894-09-07 12:00:00 NR 16.6534 116.502 main 350 350 __________P___ -1 16.6534 116.502 7 5 297
1894250N16117 1894 37 WP MM NOT_NAMED 1894-09-07 15:00:00 NR 16.7621 116.276 main 373 373 __________P___ -1 16.7621 116.276 7 5 297
1894250N16117 1894 37 WP MM NOT_NAMED 1894-09-07 16:00:00 NR 16.8000 116.200 main 384 384 __________O___ -1 16.8000 116.200 7 5 300
1894250N16117 1894 37 WP MM NOT_NAMED 1894-09-07 18:00:00 NR 16.8855 116.051 main 397 407 __________P___ -1 16.8855 116.051 7 5 301
1894250N16117 1894 37 WP MM NOT_NAMED 1894-09-07 21:00:00 NR 17.0203 115.820 main 430 430 __________P___ -1 17.0203 115.820 7 5 301
1894250N16117 1894 37 WP MM NOT_NAMED 1894-09-08 00:00:00 NR 17.1516 115.590 main 457 457 __________P___ -1 17.1516 115.590 7 5 300
1894250N16117 1894 37 WP MM NOT_NAMED 1894-09-08 03:00:00 NR 17.2672 115.370 main 480 480 __________P___ -1 17.2672 115.370 7 5 298
1894250N16117 1894 37 WP MM NOT_NAMED 1894-09-08 04:00:00 NR 17.3000 115.300 main 490 490 __________O___ -1 17.3000 115.300 4 4 294
1894250N16117 1894 37 WP MM NOT_NAMED 1894-09-08 06:00:00 NR 17.3504 115.172 main 504 488 __________P___ -1 17.3504 115.172 4 4 290
1894250N16117 1894 37 WP MM NOT_NAMED 1894-09-08 09:00:00 NR 17.4071 114.992 main 488 470 __________P___ -1 17.4071 114.992 4 3 287
1894250N16117 1894 37 WP MM NOT_NAMED 1894-09-08 12:00:00 NR 17.4495 114.822 main 470 455 __________P___ -1 17.4495 114.822 4 3 284
1894250N16117 1894 37 WP MM NOT_NAMED 1894-09-08 15:00:00 NR 17.4870 114.656 main 455 446 __________P___ -1 17.4870 114.656 4 3 283
1894250N16117 1894 37 WP MM NOT_NAMED 1894-09-08 16:00:00 NR 17.5000 114.600 main 446 437 __________O___ -1 17.5000 114.600 4 3 286
1894250N16117 1894 37 WP MM NOT_NAMED 1894-09-08 18:00:00 NR 17.5333 114.486 main 437 413 __________P___ -1 17.5333 114.486 4 3 287
1894250N16117 1894 37 WP MM NOT_NAMED 1894-09-08 21:00:00 NR 17.5832 114.315 main 413 395 __________P___ -1 17.5832 114.315 4 3 287
1894250N16117 1894 37 WP MM NOT_NAMED 1894-09-09 00:00:00 NR 17.6332 114.141 main 395 380 __________P___ -1 17.6332 114.141 4 4 287
1894250N16117 1894 37 WP MM NOT_NAMED 1894-09-09 03:00:00 NR 17.6833 113.962 main 380 372 __________P___ -1 17.6833 113.962 4 4 286
1894250N16117 1894 37 WP MM NOT_NAMED 1894-09-09 04:00:00 NR 17.7000 113.900 main 372 363 __________O___ -1 17.7000 113.900 4 4 284
1894250N16117 1894 37 WP MM NOT_NAMED 1894-09-09 06:00:00 NR 17.7307 113.767 main 363 339 __________P___ -1 17.7307 113.767 4 4 283
1894250N16117 1894 37 WP MM NOT_NAMED 1894-09-09 09:00:00 NR 17.7768 113.561 main 339 323 __________P___ -1 17.7768 113.561 4 4 284
1894250N16117 1894 37 WP MM NOT_NAMED 1894-09-09 12:00:00 NR 17.8255 113.356 main 323 299 __________P___ -1 17.8255 113.356 4 4 285
1894250N16117 1894 37 WP MM NOT_NAMED 1894-09-09 15:00:00 NR 17.8800 113.161 main 299 291 __________P___ -1 17.8800 113.161 4 4 287
1894250N16117 1894 37 WP MM NOT_NAMED 1894-09-09 16:00:00 NR 17.9000 113.100 main 291 281 __________O___ -1 17.9000 113.100 4 3 292
1894250N16117 1894 37 WP MM NOT_NAMED 1894-09-09 18:00:00 NR 17.9388 113.007 main 281 267 __________P___ -1 17.9388 113.007 4 3 296
1894250N16117 1894 37 WP MM NOT_NAMED 1894-09-09 21:00:00 NR 18.0034 112.880 main 267 243 __________P___ -1 18.0034 112.880 4 3 299
1894250N16117 1894 37 WP MM NOT_NAMED 1894-09-10 00:00:00 NR 18.0783 112.744 main 243 229 __________P___ -1 18.0783 112.744 4 3 299
1894250N16117 1894 37 WP MM NOT_NAMED 1894-09-10 03:00:00 NR 18.1669 112.571 main 229 219 __________P___ -1 18.1669 112.571 4 4 298
1894250N16117 1894 37 WP MM NOT_NAMED 1894-09-10 04:00:00 NR 18.2000 112.500 main 219 195 __________O___ -1 18.2000 112.500 4 5 294
1894250N16117 1894 37 WP MM NOT_NAMED 1894-09-10 06:00:00 NR 18.2721 112.321 main 195 162 __________P___ -1 18.2721 112.321 4 6 292
1894250N16117 1894 37 WP MM NOT_NAMED 1894-09-10 09:00:00 NR 18.3927 112.008 main 162 128 __________P___ -1 18.3927 112.008 4 7 292
1894250N16117 1894 37 WP MM NOT_NAMED 1894-09-10 12:00:00 NR 18.5227 111.664 main 128 80 __________P___ -1 18.5227 111.664 4 7 292
1894250N16117 1894 37 WP MM NOT_NAMED 1894-09-10 15:00:00 NR 18.6559 111.314 main 80 71 __________P___ -1 18.6559 111.314 4 7 292
1894250N16117 1894 37 WP MM NOT_NAMED 1894-09-10 16:00:00 NR 18.7000 111.200 main 71 47 __________O___ -1 18.7000 111.200 4 6 292
1894250N16117 1894 37 WP MM NOT_NAMED 1894-09-10 18:00:00 NR 18.7752 111.004 main 47 15 __________P___ -1 18.7752 111.004 4 6 292
1894250N16117 1894 37 WP MM NOT_NAMED 1894-09-10 21:00:00 NR 18.8879 110.718 main 15 0 __________P___ -1 18.8879 110.718 4 6 293
1894250N16117 1894 37 WP MM NOT_NAMED 1894-09-11 00:00:00 NR 19.0091 110.426 main 0 0 __________P___ -1 19.0091 110.426 4 6 294
1894250N16117 1894 37 WP MM NOT_NAMED 1894-09-11 03:00:00 NR 19.1481 110.112 main 0 0 __________P___ -1 19.1481 110.112 4 7 295
1894250N16117 1894 37 WP MM NOT_NAMED 1894-09-11 04:00:00 NR 19.2000 110.000 main 0 0 __________O___ -1 19.2000 110.000 4 7 297
1894250N16117 1894 37 WP MM NOT_NAMED 1894-09-11 06:00:00 NR 19.3134 109.767 main 0 0 __________P___ -1 19.3134 109.767 4 8 298
1894250N16117 1894 37 WP MM NOT_NAMED 1894-09-11 09:00:00 NR 19.5024 109.391 main 0 0 __________P___ -1 19.5024 109.391 4 8 298
1894250N16117 1894 37 WP MM NOT_NAMED 1894-09-11 12:00:00 NR 19.7087 108.986 main 15 15 __________P___ -1 19.7087 108.986 4 9 298
1894250N16117 1894 37 WP MM NOT_NAMED 1894-09-11 15:00:00 NR 19.9261 108.552 main 54 59 __________P___ -1 19.9261 108.552 4 9 298
1894250N16117 1894 37 WP MM NOT_NAMED 1894-09-11 16:00:00 NR 20.0000 108.400 main 74 74 __________O___ -1 20.0000 108.400 4 10 297
1894250N16117 1894 37 WP MM NOT_NAMED 1894-09-11 18:00:00 NR 20.1488 108.088 main 100 69 __________P___ -1 20.1488 108.088 4 10 296
1894250N16117 1894 37 WP MM NOT_NAMED 1894-09-11 21:00:00 NR 20.3736 107.599 main 69 33 __________P___ -1 20.3736 107.599 4 10 296
1894250N16117 1894 37 WP MM NOT_NAMED 1894-09-12 00:00:00 NR 20.5994 107.092 main 33 0 __________P___ -1 20.5994 107.092 4 11 295
1894250N16117 1894 37 WP MM NOT_NAMED 1894-09-12 03:00:00 NR 20.8250 106.574 main 0 0 __________P___ -1 20.8250 106.574 4 11 295
1894250N16117 1894 37 WP MM NOT_NAMED 1894-09-12 04:00:00 NR 20.9000 106.400 main 0 __________O___ -1 20.9000 106.400 4 11 294

Digital Typhoon Data and Search

About IBTrACS Database

This database is a web-friendly format of International Best Track Archive for Climate Stewardship (IBTrACS), a global best track data archive curated by NOAA dating back to 1842.

Updated: 2021-10-21